»·PEaware :: WAT169 KPHX-KPSP

WAT169 :: KPHX-KPSP

FLIGHT INFORMATION

Flight Status: Arrived
Operator:
Walker Air Transport
More flights by this operator :: More flights under this callsign
Pilot: Marty P. (27464)
Aircraft: BOEING 737-800
(B738)
More flights by this aircraft type
Origin: KPHX Phoenix Sky Harbor Intl
United States
Destination: KPSP Palm Springs Intl
United States
More flights between these airports :: More routes between these airports
Route: KEENS2 HRRBR CURIV J212 DECAS SBONO1
File this flight plan on PilotEdge
Remarks:
Altitude:
(Current/Filed)
28,000ft
Speed:
(Current/Filed)
480kts
Departed: 03-Jan-21 08:57 AM
Arrived: 03-Jan-21 09:45 AM
Distance/Time
Traveled:
226nm/0:48
Distance/Time
To Go:
Arrived

Flight Plot

Page will automatically refresh every two minutes.

Flight plan parsing failed; only flown route is shown


Map Options




Map Legend


Flown Route
Filed Route
Departure Airport
Arrival Airport
Navaid (VOR, NDB)
Fix

Horizontal Profiles

Position Reports

Time Latitude Longitude Heading Altitude Ground
Speed
03-Jan-21 07:54 33.437526 -111.999895 90 1133ft 0kts
03-Jan-21 07:55 33.437526 -111.999895 90 1133ft 0kts
03-Jan-21 07:56 33.437526 -111.999895 90 1133ft 0kts
03-Jan-21 07:57 33.437526 -111.999895 90 1133ft 0kts
03-Jan-21 07:58 33.437526 -111.999895 90 1133ft 0kts
03-Jan-21 07:59 33.437526 -111.999895 90 1133ft 0kts
03-Jan-21 08:00 33.437526 -111.999895 90 1133ft 0kts
03-Jan-21 08:01 33.437526 -111.999895 90 1133ft 0kts
03-Jan-21 08:02 33.437526 -111.999895 90 1133ft 0kts
03-Jan-21 08:03 33.437526 -111.999895 90 1133ft 0kts
03-Jan-21 08:04 33.437526 -111.999895 90 1133ft 0kts
03-Jan-21 08:05 33.437526 -111.999895 90 1133ft 0kts
03-Jan-21 08:06 33.437526 -111.999895 90 1133ft 0kts
03-Jan-21 08:07 33.437526 -111.999895 90 1133ft 0kts
03-Jan-21 08:08 33.437526 -111.999895 90 1133ft 0kts
03-Jan-21 08:09 33.437526 -111.999895 90 1133ft 0kts
03-Jan-21 08:10 33.437526 -111.999895 90 1133ft 0kts
03-Jan-21 08:11 33.437526 -111.999895 90 1133ft 0kts
03-Jan-21 08:12 33.437526 -111.999895 90 1133ft 0kts
03-Jan-21 08:13 33.437526 -111.999895 90 1133ft 0kts
03-Jan-21 08:14 33.437526 -111.999896 90 1132ft 0kts
03-Jan-21 08:15 33.437526 -111.999896 90 1132ft 0kts
03-Jan-21 08:16 33.437526 -111.999896 90 1132ft 0kts
03-Jan-21 08:17 33.437526 -111.999896 90 1132ft 0kts
03-Jan-21 08:18 33.437526 -111.999896 90 1132ft 0kts
03-Jan-21 08:19 33.437526 -111.999896 90 1132ft 0kts
03-Jan-21 08:20 33.437526 -111.999896 90 1132ft 0kts
03-Jan-21 08:21 33.437526 -111.999896 90 1132ft 0kts
03-Jan-21 08:22 33.437526 -111.999896 90 1132ft 0kts
03-Jan-21 08:23 33.437526 -111.999896 90 1132ft 0kts
03-Jan-21 08:24 33.437526 -111.999896 90 1132ft 0kts
03-Jan-21 08:25 33.437526 -111.999896 90 1132ft 0kts
03-Jan-21 08:26 33.437526 -111.999896 90 1132ft 0kts
03-Jan-21 08:27 33.437526 -111.999896 90 1132ft 0kts
03-Jan-21 08:28 33.437526 -111.999896 90 1132ft 0kts
03-Jan-21 08:29 33.437526 -111.999896 90 1132ft 0kts
03-Jan-21 08:30 33.437526 -111.999896 90 1132ft 0kts
03-Jan-21 08:31 33.437526 -111.999896 90 1132ft 0kts
03-Jan-21 08:32 33.437526 -111.999896 90 1132ft 0kts
03-Jan-21 08:33 33.437526 -111.999896 90 1132ft 0kts
03-Jan-21 08:34 33.437482 -112.000118 57 1132ft 2kts
03-Jan-21 08:35 33.437098 -112.000325 358 1132ft 1kts
03-Jan-21 08:36 33.438254 -112.000329 359 1132ft 2kts
03-Jan-21 08:37 33.438301 -112.000329 359 1132ft 0kts
03-Jan-21 08:38 33.438301 -112.000329 359 1132ft 0kts
03-Jan-21 08:39 33.438301 -112.000329 359 1132ft 0kts
03-Jan-21 08:40 33.438301 -112.000329 359 1132ft 0kts
03-Jan-21 08:41 33.438301 -112.000329 359 1132ft 0kts
03-Jan-21 08:42 33.438301 -112.000329 359 1132ft 0kts
03-Jan-21 08:43 33.438301 -112.000329 359 1132ft 0kts
03-Jan-21 08:44 33.438301 -112.000329 359 1132ft 0kts
03-Jan-21 08:45 33.438301 -112.000329 359 1132ft 0kts
03-Jan-21 08:46 33.438301 -112.000329 359 1132ft 0kts
03-Jan-21 08:47 33.438301 -112.000329 359 1132ft 0kts
03-Jan-21 08:48 33.438510 -112.000331 359 1133ft 6kts
03-Jan-21 08:49 33.439031 -112.003725 270 1132ft 18kts
03-Jan-21 08:50 33.439029 -112.010590 269 1130ft 19kts
03-Jan-21 08:52 33.439027 -112.018758 270 1123ft 30kts
03-Jan-21 08:53 33.439023 -112.025352 269 1120ft 16kts
03-Jan-21 08:54 33.439536 -112.029604 347 1116ft 5kts
03-Jan-21 08:55 33.439901 -112.029650 357 1116ft 0kts
03-Jan-21 08:56 33.440838 -112.029450 72 1116ft 5kts
03-Jan-21 08:57 33.441279 -111.997170 87 1846ft 177kts
03-Jan-21 08:58 33.439641 -111.930158 96 4157ft 235kts
03-Jan-21 08:59 33.418350 -111.858225 137 7603ft 249kts
03-Jan-21 09:00 33.358866 -111.866624 242 11470ft 241kts
03-Jan-21 09:01 33.357126 -111.944225 278 14516ft 261kts
03-Jan-21 09:02 33.368592 -112.046513 280 15828ft 343kts
03-Jan-21 09:03 33.385865 -112.161261 281 18751ft 358kts
03-Jan-21 09:04 33.403616 -112.280782 281 21314ft 371kts
03-Jan-21 09:05 33.421894 -112.404486 281 23552ft 384kts
03-Jan-21 09:05 33.437493 -112.510803 281 25191ft 394kts
03-Jan-21 09:06 33.449799 -112.643373 274 26878ft 409kts
03-Jan-21 09:08 33.458420 -112.804984 281 28278ft 428kts
03-Jan-21 09:09 33.482357 -112.951547 283 28272ft 468kts
03-Jan-21 09:09 33.506006 -113.082031 283 28272ft 489kts
03-Jan-21 09:10 33.535672 -113.243063 284 28266ft 493kts
03-Jan-21 09:11 33.563144 -113.392373 284 28281ft 448kts
03-Jan-21 09:12 33.590017 -113.538858 284 28281ft 451kts
03-Jan-21 09:13 33.617101 -113.686005 283 28283ft 450kts
03-Jan-21 09:14 33.644172 -113.832437 283 28283ft 450kts
03-Jan-21 09:15 33.671044 -113.979086 283 28283ft 449kts
03-Jan-21 09:16 33.697888 -114.125842 283 28279ft 450kts
03-Jan-21 09:17 33.724761 -114.273165 283 27196ft 452kts
03-Jan-21 09:18 33.751386 -114.419978 283 25198ft 447kts
03-Jan-21 09:19 33.773698 -114.564184 276 24274ft 440kts
03-Jan-21 09:20 33.782774 -114.710240 275 24276ft 440kts
03-Jan-21 09:21 33.791137 -114.854067 274 23477ft 412kts
03-Jan-21 09:22 33.798576 -114.984941 275 21465ft 371kts
03-Jan-21 09:23 33.804931 -115.099607 275 19479ft 334kts
03-Jan-21 09:24 33.810859 -115.209649 275 17479ft 324kts
03-Jan-21 09:25 33.816557 -115.316290 275 15585ft 312kts
03-Jan-21 09:26 33.822052 -115.420405 275 14591ft 309kts
03-Jan-21 09:27 33.843272 -115.518484 292 13585ft 302kts
03-Jan-21 09:28 33.873775 -115.611930 292 12357ft 299kts
03-Jan-21 09:29 33.903447 -115.704221 291 10974ft 274kts
03-Jan-21 09:30 33.913099 -115.785155 267 10980ft 223kts
03-Jan-21 09:31 33.908001 -115.858925 268 10980ft 222kts
03-Jan-21 09:32 33.900288 -115.938310 255 10979ft 247kts
03-Jan-21 09:33 33.866446 -116.013027 240 9657ft 256kts
03-Jan-21 09:34 33.830412 -116.085314 239 7829ft 251kts
03-Jan-21 09:35 33.782009 -116.142557 205 6020ft 246kts
03-Jan-21 09:36 33.723610 -116.175015 207 4991ft 220kts
03-Jan-21 09:37 33.688804 -116.228043 257 4537ft 190kts
03-Jan-21 09:38 33.682519 -116.289723 263 3998ft 185kts
03-Jan-21 09:39 33.679206 -116.351934 280 3984ft 187kts
03-Jan-21 09:40 33.712312 -116.399313 321 3084ft 187kts
03-Jan-21 09:41 33.752040 -116.436275 322 2076ft 158kts
03-Jan-21 09:42 33.785904 -116.467770 319 1228ft 152kts
03-Jan-21 09:43 33.819534 -116.498673 323 478ft 153kts
03-Jan-21 09:44 33.832974 -116.511871 206 447ft 6kts
03-Jan-21 09:45 33.830619 -116.510644 143 438ft 13kts
03-Jan-21 09:46 33.827824 -116.508072 143 429ft 0kts
03-Jan-21 09:47 33.825446 -116.506000 144 421ft 25kts
03-Jan-21 09:48 33.822587 -116.505236 288 415ft 4kts
03-Jan-21 09:49 33.822770 -116.505863 291 417ft 0kts
03-Jan-21 09:50 33.822770 -116.505863 291 417ft 0kts
03-Jan-21 09:51 33.822770 -116.505863 291 417ft 0kts
03-Jan-21 09:52 33.822770 -116.505863 291 417ft 0kts
03-Jan-21 09:53 33.822770 -116.505863 291 417ft 0kts
03-Jan-21 09:54 33.822770 -116.505863 291 417ft 0kts
03-Jan-21 09:55 33.822770 -116.505863 291 417ft 0kts
03-Jan-21 09:56 33.822770 -116.505863 291 417ft 0kts
03-Jan-21 09:57 33.822770 -116.505863 291 417ft 0kts
03-Jan-21 09:58 33.822770 -116.505863 291 417ft 0kts

Navigation Log

Ident Type
Flight plan parsing failed, navigation log unavailable